sensor_id;sensor_type;location;lat;lon;timestamp;P1;durP1;ratioP1;P2;durP2;ratioP2
25511;SDS011;13414;44.534;18.700;2023-06-10T00:00:00;15.98;;;14.27;;
25511;SDS011;13414;44.534;18.700;2023-06-10T00:02:37;18.98;;;14.05;;
25511;SDS011;13414;44.534;18.700;2023-06-10T00:05:06;17.80;;;13.90;;
25511;SDS011;13414;44.534;18.700;2023-06-10T00:07:35;18.77;;;13.55;;
25511;SDS011;13414;44.534;18.700;2023-06-10T00:10:03;21.80;;;15.60;;
25511;SDS011;13414;44.534;18.700;2023-06-10T00:12:33;18.83;;;14.23;;
25511;SDS011;13414;44.534;18.700;2023-06-10T00:15:03;16.35;;;13.18;;
25511;SDS011;13414;44.534;18.700;2023-06-10T00:17:31;18.92;;;14.35;;
25511;SDS011;13414;44.534;18.700;2023-06-10T00:19:59;19.20;;;14.50;;
25511;SDS011;13414;44.534;18.700;2023-06-10T00:22:30;16.75;;;12.95;;
25511;SDS011;13414;44.534;18.700;2023-06-10T00:24:57;19.70;;;13.30;;
25511;SDS011;13414;44.534;18.700;2023-06-10T00:27:25;17.90;;;12.93;;
25511;SDS011;13414;44.534;18.700;2023-06-10T00:29:58;17.73;;;13.10;;
25511;SDS011;13414;44.534;18.700;2023-06-10T00:32:25;17.98;;;13.85;;
25511;SDS011;13414;44.534;18.700;2023-06-10T00:34:52;21.10;;;14.65;;
25511;SDS011;13414;44.534;18.700;2023-06-10T00:37:20;23.67;;;15.38;;
25511;SDS011;13414;44.534;18.700;2023-06-10T00:39:48;23.38;;;15.27;;
25511;SDS011;13414;44.534;18.700;2023-06-10T00:42:15;17.65;;;13.05;;
25511;SDS011;13414;44.534;18.700;2023-06-10T00:44:43;17.65;;;13.90;;
25511;SDS011;13414;44.534;18.700;2023-06-10T00:47:11;16.67;;;13.80;;
25511;SDS011;13414;44.534;18.700;2023-06-10T00:49:40;19.25;;;14.82;;
25511;SDS011;13414;44.534;18.700;2023-06-10T00:52:08;17.42;;;13.15;;
25511;SDS011;13414;44.534;18.700;2023-06-10T00:54:36;17.38;;;13.20;;
25511;SDS011;13414;44.534;18.700;2023-06-10T00:57:05;18.80;;;12.52;;
25511;SDS011;13414;44.534;18.700;2023-06-10T00:59:34;17.17;;;13.43;;
25511;SDS011;13414;44.534;18.700;2023-06-10T01:02:03;16.92;;;13.13;;
25511;SDS011;13414;44.534;18.700;2023-06-10T01:04:32;16.85;;;14.10;;
25511;SDS011;13414;44.534;18.700;2023-06-10T01:07:00;19.17;;;13.88;;
25511;SDS011;13414;44.534;18.700;2023-06-10T01:09:45;18.15;;;14.23;;
25511;SDS011;13414;44.534;18.700;2023-06-10T01:12:24;19.30;;;13.75;;
25511;SDS011;13414;44.534;18.700;2023-06-10T01:14:58;17.05;;;13.63;;
25511;SDS011;13414;44.534;18.700;2023-06-10T01:17:27;19.08;;;15.73;;
25511;SDS011;13414;44.534;18.700;2023-06-10T01:19:57;18.38;;;14.18;;
25511;SDS011;13414;44.534;18.700;2023-06-10T01:22:26;22.65;;;18.10;;
25511;SDS011;13414;44.534;18.700;2023-06-10T01:24:57;21.92;;;14.23;;
25511;SDS011;13414;44.534;18.700;2023-06-10T01:27:26;26.00;;;14.35;;
25511;SDS011;13414;44.534;18.700;2023-06-10T01:29:58;18.38;;;13.52;;
25511;SDS011;13414;44.534;18.700;2023-06-10T01:32:34;21.27;;;14.38;;
25511;SDS011;13414;44.534;18.700;2023-06-10T01:35:07;18.60;;;13.20;;
25511;SDS011;13414;44.534;18.700;2023-06-10T01:37:37;17.88;;;14.60;;
25511;SDS011;13414;44.534;18.700;2023-06-10T01:40:07;21.67;;;13.95;;
25511;SDS011;13414;44.534;18.700;2023-06-10T01:42:35;19.52;;;14.30;;
25511;SDS011;13414;44.534;18.700;2023-06-10T01:45:03;18.15;;;13.15;;
25511;SDS011;13414;44.534;18.700;2023-06-10T01:47:31;19.25;;;13.88;;
25511;SDS011;13414;44.534;18.700;2023-06-10T01:49:59;15.85;;;12.52;;
25511;SDS011;13414;44.534;18.700;2023-06-10T01:52:27;20.67;;;13.70;;
25511;SDS011;13414;44.534;18.700;2023-06-10T01:54:56;20.15;;;14.95;;
25511;SDS011;13414;44.534;18.700;2023-06-10T01:57:23;19.83;;;13.75;;
25511;SDS011;13414;44.534;18.700;2023-06-10T01:59:53;19.30;;;13.82;;
25511;SDS011;13414;44.534;18.700;2023-06-10T02:02:20;22.30;;;14.10;;
25511;SDS011;13414;44.534;18.700;2023-06-10T02:04:48;21.52;;;13.88;;
25511;SDS011;13414;44.534;18.700;2023-06-10T02:07:20;24.17;;;13.18;;
25511;SDS011;13414;44.534;18.700;2023-06-10T02:09:48;16.77;;;13.30;;
25511;SDS011;13414;44.534;18.700;2023-06-10T02:12:17;19.48;;;13.65;;
25511;SDS011;13414;44.534;18.700;2023-06-10T02:14:45;19.15;;;13.63;;
25511;SDS011;13414;44.534;18.700;2023-06-10T02:17:12;18.98;;;13.25;;
25511;SDS011;13414;44.534;18.700;2023-06-10T02:19:41;18.23;;;13.90;;
25511;SDS011;13414;44.534;18.700;2023-06-10T02:22:09;16.00;;;13.00;;
25511;SDS011;13414;44.534;18.700;2023-06-10T02:24:39;17.15;;;12.85;;
25511;SDS011;13414;44.534;18.700;2023-06-10T02:27:06;21.35;;;13.73;;
25511;SDS011;13414;44.534;18.700;2023-06-10T02:29:35;17.52;;;13.05;;
25511;SDS011;13414;44.534;18.700;2023-06-10T02:32:03;17.75;;;12.68;;
25511;SDS011;13414;44.534;18.700;2023-06-10T02:34:32;17.15;;;13.50;;
25511;SDS011;13414;44.534;18.700;2023-06-10T02:37:02;19.90;;;13.65;;
25511;SDS011;13414;44.534;18.700;2023-06-10T02:39:30;20.85;;;14.10;;
25511;SDS011;13414;44.534;18.700;2023-06-10T02:41:58;20.05;;;13.35;;
25511;SDS011;13414;44.534;18.700;2023-06-10T02:44:26;17.27;;;13.75;;
25511;SDS011;13414;44.534;18.700;2023-06-10T02:46:56;18.08;;;13.70;;
25511;SDS011;13414;44.534;18.700;2023-06-10T02:49:25;18.23;;;13.90;;
25511;SDS011;13414;44.534;18.700;2023-06-10T02:51:55;18.98;;;12.90;;
25511;SDS011;13414;44.534;18.700;2023-06-10T02:54:23;15.60;;;13.18;;
25511;SDS011;13414;44.534;18.700;2023-06-10T02:56:53;18.90;;;14.32;;
25511;SDS011;13414;44.534;18.700;2023-06-10T02:59:24;20.42;;;12.90;;
25511;SDS011;13414;44.534;18.700;2023-06-10T03:01:53;18.75;;;13.88;;
25511;SDS011;13414;44.534;18.700;2023-06-10T03:04:24;18.77;;;13.43;;
25511;SDS011;13414;44.534;18.700;2023-06-10T03:07:01;23.40;;;12.82;;
25511;SDS011;13414;44.534;18.700;2023-06-10T03:09:32;17.98;;;13.85;;
25511;SDS011;13414;44.534;18.700;2023-06-10T03:12:00;20.58;;;13.75;;
25511;SDS011;13414;44.534;18.700;2023-06-10T03:14:33;21.75;;;15.13;;
25511;SDS011;13414;44.534;18.700;2023-06-10T03:17:01;21.17;;;15.35;;
25511;SDS011;13414;44.534;18.700;2023-06-10T03:19:33;22.08;;;14.27;;
25511;SDS011;13414;44.534;18.700;2023-06-10T03:22:07;21.50;;;14.05;;
25511;SDS011;13414;44.534;18.700;2023-06-10T03:24:38;20.38;;;14.23;;
25511;SDS011;13414;44.534;18.700;2023-06-10T03:27:08;23.52;;;14.63;;
25511;SDS011;13414;44.534;18.700;2023-06-10T03:29:38;19.63;;;13.93;;
25511;SDS011;13414;44.534;18.700;2023-06-10T03:32:07;17.08;;;13.43;;
25511;SDS011;13414;44.534;18.700;2023-06-10T03:34:38;15.98;;;13.10;;
25511;SDS011;13414;44.534;18.700;2023-06-10T03:37:05;17.73;;;12.60;;
25511;SDS011;13414;44.534;18.700;2023-06-10T03:39:33;19.98;;;12.43;;
25511;SDS011;13414;44.534;18.700;2023-06-10T03:42:01;17.15;;;11.25;;
25511;SDS011;13414;44.534;18.700;2023-06-10T03:44:31;18.40;;;12.23;;
25511;SDS011;13414;44.534;18.700;2023-06-10T03:46:59;16.25;;;12.48;;
25511;SDS011;13414;44.534;18.700;2023-06-10T03:49:26;18.85;;;11.93;;
25511;SDS011;13414;44.534;18.700;2023-06-10T03:51:58;17.38;;;11.38;;
25511;SDS011;13414;44.534;18.700;2023-06-10T03:54:26;16.10;;;11.93;;
25511;SDS011;13414;44.534;18.700;2023-06-10T03:56:54;14.73;;;10.10;;
25511;SDS011;13414;44.534;18.700;2023-06-10T03:59:21;16.08;;;9.57;;
25511;SDS011;13414;44.534;18.700;2023-06-10T04:01:49;13.27;;;10.43;;
25511;SDS011;13414;44.534;18.700;2023-06-10T04:04:16;12.93;;;9.85;;
25511;SDS011;13414;44.534;18.700;2023-06-10T04:06:45;14.10;;;9.40;;
25511;SDS011;13414;44.534;18.700;2023-06-10T04:09:17;11.98;;;8.63;;
25511;SDS011;13414;44.534;18.700;2023-06-10T04:11:45;12.98;;;9.20;;
25511;SDS011;13414;44.534;18.700;2023-06-10T04:14:13;15.15;;;9.15;;
25511;SDS011;13414;44.534;18.700;2023-06-10T04:16:42;15.10;;;9.30;;
25511;SDS011;13414;44.534;18.700;2023-06-10T04:19:11;11.77;;;8.70;;
25511;SDS011;13414;44.534;18.700;2023-06-10T04:21:38;13.73;;;10.35;;
25511;SDS011;13414;44.534;18.700;2023-06-10T04:24:06;11.57;;;9.18;;
25511;SDS011;13414;44.534;18.700;2023-06-10T04:26:35;11.02;;;8.85;;
25511;SDS011;13414;44.534;18.700;2023-06-10T04:29:03;13.40;;;8.65;;
25511;SDS011;13414;44.534;18.700;2023-06-10T04:31:30;10.48;;;8.25;;
25511;SDS011;13414;44.534;18.700;2023-06-10T04:33:59;11.68;;;8.60;;
25511;SDS011;13414;44.534;18.700;2023-06-10T04:36:28;10.30;;;8.30;;
25511;SDS011;13414;44.534;18.700;2023-06-10T04:38:56;12.65;;;8.68;;
25511;SDS011;13414;44.534;18.700;2023-06-10T04:41:23;11.02;;;8.48;;
25511;SDS011;13414;44.534;18.700;2023-06-10T04:43:54;11.35;;;8.65;;
25511;SDS011;13414;44.534;18.700;2023-06-10T04:46:22;11.10;;;8.68;;
25511;SDS011;13414;44.534;18.700;2023-06-10T04:48:49;11.45;;;8.13;;
25511;SDS011;13414;44.534;18.700;2023-06-10T04:51:18;10.98;;;8.20;;
25511;SDS011;13414;44.534;18.700;2023-06-10T04:53:46;10.82;;;7.80;;
25511;SDS011;13414;44.534;18.700;2023-06-10T04:56:13;10.05;;;7.88;;
25511;SDS011;13414;44.534;18.700;2023-06-10T04:58:41;13.00;;;8.27;;
25511;SDS011;13414;44.534;18.700;2023-06-10T05:01:10;13.45;;;8.45;;
25511;SDS011;13414;44.534;18.700;2023-06-10T05:03:38;13.77;;;8.55;;
25511;SDS011;13414;44.534;18.700;2023-06-10T05:06:05;14.73;;;9.50;;
25511;SDS011;13414;44.534;18.700;2023-06-10T05:08:33;12.32;;;9.45;;
25511;SDS011;13414;44.534;18.700;2023-06-10T05:11:00;11.45;;;8.48;;
25511;SDS011;13414;44.534;18.700;2023-06-10T05:13:28;12.45;;;8.60;;
25511;SDS011;13414;44.534;18.700;2023-06-10T05:15:58;11.50;;;9.75;;
25511;SDS011;13414;44.534;18.700;2023-06-10T05:18:27;9.75;;;8.60;;
25511;SDS011;13414;44.534;18.700;2023-06-10T05:20:56;11.95;;;9.50;;
25511;SDS011;13414;44.534;18.700;2023-06-10T05:23:23;11.13;;;9.25;;
25511;SDS011;13414;44.534;18.700;2023-06-10T05:25:51;9.65;;;8.63;;
25511;SDS011;13414;44.534;18.700;2023-06-10T05:28:18;14.57;;;8.60;;
25511;SDS011;13414;44.534;18.700;2023-06-10T05:30:46;12.60;;;9.25;;
25511;SDS011;13414;44.534;18.700;2023-06-10T05:33:13;9.70;;;8.77;;
25511;SDS011;13414;44.534;18.700;2023-06-10T05:35:42;12.48;;;9.05;;
25511;SDS011;13414;44.534;18.700;2023-06-10T05:38:09;11.93;;;9.27;;
25511;SDS011;13414;44.534;18.700;2023-06-10T05:40:37;10.90;;;8.90;;
25511;SDS011;13414;44.534;18.700;2023-06-10T05:43:04;12.13;;;9.15;;
25511;SDS011;13414;44.534;18.700;2023-06-10T05:45:34;11.50;;;9.23;;
25511;SDS011;13414;44.534;18.700;2023-06-10T05:48:02;13.10;;;9.68;;
25511;SDS011;13414;44.534;18.700;2023-06-10T05:50:30;23.42;;;12.13;;
25511;SDS011;13414;44.534;18.700;2023-06-10T05:53:04;11.93;;;10.45;;
25511;SDS011;13414;44.534;18.700;2023-06-10T05:55:33;14.50;;;11.02;;
25511;SDS011;13414;44.534;18.700;2023-06-10T05:58:01;13.73;;;10.65;;
25511;SDS011;13414;44.534;18.700;2023-06-10T06:00:28;15.45;;;12.15;;
25511;SDS011;13414;44.534;18.700;2023-06-10T06:02:56;12.52;;;11.23;;
25511;SDS011;13414;44.534;18.700;2023-06-10T06:05:24;15.52;;;10.70;;
25511;SDS011;13414;44.534;18.700;2023-06-10T06:07:51;17.77;;;13.85;;
25511;SDS011;13414;44.534;18.700;2023-06-10T06:10:20;16.55;;;13.32;;
25511;SDS011;13414;44.534;18.700;2023-06-10T06:12:48;15.30;;;12.88;;
25511;SDS011;13414;44.534;18.700;2023-06-10T06:15:17;18.77;;;14.00;;
25511;SDS011;13414;44.534;18.700;2023-06-10T06:17:45;17.17;;;12.90;;
25511;SDS011;13414;44.534;18.700;2023-06-10T06:20:12;17.17;;;12.80;;
25511;SDS011;13414;44.534;18.700;2023-06-10T06:22:40;17.48;;;13.73;;
25511;SDS011;13414;44.534;18.700;2023-06-10T06:25:07;19.60;;;15.73;;
25511;SDS011;13414;44.534;18.700;2023-06-10T06:27:37;16.23;;;12.50;;
25511;SDS011;13414;44.534;18.700;2023-06-10T06:30:05;17.15;;;12.77;;
25511;SDS011;13414;44.534;18.700;2023-06-10T06:32:33;21.63;;;14.18;;
25511;SDS011;13414;44.534;18.700;2023-06-10T06:35:00;18.67;;;13.75;;
25511;SDS011;13414;44.534;18.700;2023-06-10T06:37:29;18.33;;;13.40;;
25511;SDS011;13414;44.534;18.700;2023-06-10T06:40:19;21.65;;;14.98;;
25511;SDS011;13414;44.534;18.700;2023-06-10T06:42:48;20.13;;;13.77;;
25511;SDS011;13414;44.534;18.700;2023-06-10T06:45:31;19.42;;;12.75;;
25511;SDS011;13414;44.534;18.700;2023-06-10T06:48:02;18.25;;;13.82;;
25511;SDS011;13414;44.534;18.700;2023-06-10T06:50:30;17.35;;;13.10;;
25511;SDS011;13414;44.534;18.700;2023-06-10T06:53:00;18.92;;;13.32;;
25511;SDS011;13414;44.534;18.700;2023-06-10T06:55:27;17.50;;;12.80;;
25511;SDS011;13414;44.534;18.700;2023-06-10T06:57:56;15.18;;;11.90;;
25511;SDS011;13414;44.534;18.700;2023-06-10T07:00:28;16.00;;;12.65;;
25511;SDS011;13414;44.534;18.700;2023-06-10T07:02:55;15.93;;;12.93;;
25511;SDS011;13414;44.534;18.700;2023-06-10T07:05:24;20.27;;;12.95;;
25511;SDS011;13414;44.534;18.700;2023-06-10T07:07:52;19.50;;;13.27;;
25511;SDS011;13414;44.534;18.700;2023-06-10T07:10:27;13.43;;;11.30;;
25511;SDS011;13414;44.534;18.700;2023-06-10T07:13:03;15.02;;;12.23;;
25511;SDS011;13414;44.534;18.700;2023-06-10T07:15:35;14.55;;;11.95;;
25511;SDS011;13414;44.534;18.700;2023-06-10T07:18:04;12.43;;;10.25;;
25511;SDS011;13414;44.534;18.700;2023-06-10T07:20:31;12.02;;;10.75;;
25511;SDS011;13414;44.534;18.700;2023-06-10T07:22:59;12.95;;;10.77;;
25511;SDS011;13414;44.534;18.700;2023-06-10T07:25:26;15.40;;;12.13;;
25511;SDS011;13414;44.534;18.700;2023-06-10T07:27:54;13.10;;;11.38;;
25511;SDS011;13414;44.534;18.700;2023-06-10T07:30:22;14.63;;;10.32;;
25511;SDS011;13414;44.534;18.700;2023-06-10T07:32:50;12.48;;;10.82;;
25511;SDS011;13414;44.534;18.700;2023-06-10T07:35:18;15.85;;;10.80;;
25511;SDS011;13414;44.534;18.700;2023-06-10T07:37:46;14.70;;;12.27;;
25511;SDS011;13414;44.534;18.700;2023-06-10T07:40:14;14.48;;;12.35;;
25511;SDS011;13414;44.534;18.700;2023-06-10T07:42:41;14.48;;;11.65;;
25511;SDS011;13414;44.534;18.700;2023-06-10T07:45:08;11.40;;;9.52;;
25511;SDS011;13414;44.534;18.700;2023-06-10T07:47:38;10.15;;;9.15;;
25511;SDS011;13414;44.534;18.700;2023-06-10T07:50:05;9.95;;;8.95;;
25511;SDS011;13414;44.534;18.700;2023-06-10T07:52:33;11.50;;;9.52;;
25511;SDS011;13414;44.534;18.700;2023-06-10T07:55:00;12.23;;;10.52;;
25511;SDS011;13414;44.534;18.700;2023-06-10T07:57:28;12.88;;;9.73;;
25511;SDS011;13414;44.534;18.700;2023-06-10T07:59:57;12.13;;;9.27;;
25511;SDS011;13414;44.534;18.700;2023-06-10T08:02:25;11.02;;;9.07;;
25511;SDS011;13414;44.534;18.700;2023-06-10T08:04:54;11.75;;;9.63;;
25511;SDS011;13414;44.534;18.700;2023-06-10T08:07:22;10.25;;;8.98;;
25511;SDS011;13414;44.534;18.700;2023-06-10T08:09:49;10.50;;;9.02;;
25511;SDS011;13414;44.534;18.700;2023-06-10T08:12:17;10.80;;;8.35;;
25511;SDS011;13414;44.534;18.700;2023-06-10T08:14:46;9.32;;;7.80;;
25511;SDS011;13414;44.534;18.700;2023-06-10T08:17:13;9.15;;;7.20;;
25511;SDS011;13414;44.534;18.700;2023-06-10T08:19:40;10.80;;;8.35;;
25511;SDS011;13414;44.534;18.700;2023-06-10T08:22:09;10.80;;;9.70;;
25511;SDS011;13414;44.534;18.700;2023-06-10T08:24:37;9.65;;;8.10;;
25511;SDS011;13414;44.534;18.700;2023-06-10T08:27:04;12.18;;;8.93;;
25511;SDS011;13414;44.534;18.700;2023-06-10T08:29:32;10.20;;;7.90;;
25511;SDS011;13414;44.534;18.700;2023-06-10T08:31:59;13.32;;;9.40;;
25511;SDS011;13414;44.534;18.700;2023-06-10T08:34:27;9.45;;;8.18;;
25511;SDS011;13414;44.534;18.700;2023-06-10T08:36:54;11.27;;;8.65;;
25511;SDS011;13414;44.534;18.700;2023-06-10T08:39:23;9.60;;;8.00;;
25511;SDS011;13414;44.534;18.700;2023-06-10T08:41:51;11.00;;;8.85;;
25511;SDS011;13414;44.534;18.700;2023-06-10T08:44:28;13.23;;;10.43;;
25511;SDS011;13414;44.534;18.700;2023-06-10T08:46:56;11.85;;;9.80;;
25511;SDS011;13414;44.534;18.700;2023-06-10T08:49:27;10.70;;;9.52;;
25511;SDS011;13414;44.534;18.700;2023-06-10T08:52:03;12.30;;;9.63;;
25511;SDS011;13414;44.534;18.700;2023-06-10T08:54:34;12.77;;;9.88;;
25511;SDS011;13414;44.534;18.700;2023-06-10T08:57:06;12.85;;;10.88;;
25511;SDS011;13414;44.534;18.700;2023-06-10T08:59:34;23.60;;;18.52;;
25511;SDS011;13414;44.534;18.700;2023-06-10T09:02:02;33.83;;;27.52;;
25511;SDS011;13414;44.534;18.700;2023-06-10T09:04:31;14.98;;;10.40;;
25511;SDS011;13414;44.534;18.700;2023-06-10T09:06:59;25.73;;;17.65;;
25511;SDS011;13414;44.534;18.700;2023-06-10T09:09:27;9.57;;;8.07;;
25511;SDS011;13414;44.534;18.700;2023-06-10T09:11:57;9.55;;;8.23;;
25511;SDS011;13414;44.534;18.700;2023-06-10T09:14:26;9.63;;;8.10;;
25511;SDS011;13414;44.534;18.700;2023-06-10T09:16:54;10.48;;;9.20;;
25511;SDS011;13414;44.534;18.700;2023-06-10T09:19:23;9.23;;;8.25;;
25511;SDS011;13414;44.534;18.700;2023-06-10T09:21:51;11.93;;;9.07;;
25511;SDS011;13414;44.534;18.700;2023-06-10T09:24:20;8.50;;;6.28;;
25511;SDS011;13414;44.534;18.700;2023-06-10T09:26:48;9.10;;;7.40;;
25511;SDS011;13414;44.534;18.700;2023-06-10T09:29:20;9.88;;;6.80;;
25511;SDS011;13414;44.534;18.700;2023-06-10T09:31:47;7.70;;;6.90;;
25511;SDS011;13414;44.534;18.700;2023-06-10T09:34:15;8.35;;;7.45;;
25511;SDS011;13414;44.534;18.700;2023-06-10T09:36:42;9.65;;;7.43;;
25511;SDS011;13414;44.534;18.700;2023-06-10T09:39:14;9.95;;;7.05;;
25511;SDS011;13414;44.534;18.700;2023-06-10T09:41:42;9.90;;;8.30;;
25511;SDS011;13414;44.534;18.700;2023-06-10T09:44:11;11.85;;;9.98;;
25511;SDS011;13414;44.534;18.700;2023-06-10T09:46:42;12.25;;;8.95;;
25511;SDS011;13414;44.534;18.700;2023-06-10T09:49:11;17.35;;;9.82;;
25511;SDS011;13414;44.534;18.700;2023-06-10T09:51:47;10.57;;;9.45;;
25511;SDS011;13414;44.534;18.700;2023-06-10T09:54:16;10.98;;;9.88;;
25511;SDS011;13414;44.534;18.700;2023-06-10T09:56:44;14.73;;;12.07;;
25511;SDS011;13414;44.534;18.700;2023-06-10T09:59:14;13.48;;;11.57;;
25511;SDS011;13414;44.534;18.700;2023-06-10T10:01:43;13.25;;;10.05;;
25511;SDS011;13414;44.534;18.700;2023-06-10T10:04:23;14.95;;;10.77;;
25511;SDS011;13414;44.534;18.700;2023-06-10T10:06:51;11.98;;;10.18;;
25511;SDS011;13414;44.534;18.700;2023-06-10T10:09:19;12.10;;;8.32;;
25511;SDS011;13414;44.534;18.700;2023-06-10T10:11:46;14.43;;;8.52;;
25511;SDS011;13414;44.534;18.700;2023-06-10T10:14:15;9.45;;;7.95;;
25511;SDS011;13414;44.534;18.700;2023-06-10T10:16:46;12.73;;;8.35;;
25511;SDS011;13414;44.534;18.700;2023-06-10T10:19:16;8.82;;;7.68;;
25511;SDS011;13414;44.534;18.700;2023-06-10T10:21:49;8.38;;;6.88;;
25511;SDS011;13414;44.534;18.700;2023-06-10T10:24:20;6.80;;;6.10;;
25511;SDS011;13414;44.534;18.700;2023-06-10T10:26:50;8.07;;;5.93;;
25511;SDS011;13414;44.534;18.700;2023-06-10T10:29:20;7.95;;;6.72;;
25511;SDS011;13414;44.534;18.700;2023-06-10T10:31:56;16.45;;;8.60;;
25511;SDS011;13414;44.534;18.700;2023-06-10T10:34:29;8.20;;;6.68;;
25511;SDS011;13414;44.534;18.700;2023-06-10T10:39:29;6.25;;;5.47;;
25511;SDS011;13414;44.534;18.700;2023-06-10T10:41:57;8.50;;;6.07;;
25511;SDS011;13414;44.534;18.700;2023-06-10T10:44:25;6.18;;;5.57;;
25511;SDS011;13414;44.534;18.700;2023-06-10T10:46:53;8.60;;;6.80;;
25511;SDS011;13414;44.534;18.700;2023-06-10T10:49:24;9.60;;;8.02;;
25511;SDS011;13414;44.534;18.700;2023-06-10T10:51:56;23.17;;;10.43;;
25511;SDS011;13414;44.534;18.700;2023-06-10T10:54:28;21.13;;;12.15;;
25511;SDS011;13414;44.534;18.700;2023-06-10T10:57:09;17.52;;;11.38;;
25511;SDS011;13414;44.534;18.700;2023-06-10T10:59:54;13.20;;;8.70;;
25511;SDS011;13414;44.534;18.700;2023-06-10T11:02:40;9.80;;;8.80;;
25511;SDS011;13414;44.534;18.700;2023-06-10T11:05:10;102.07;;;11.68;;
25511;SDS011;13414;44.534;18.700;2023-06-10T11:07:38;0.20;;;0.20;;
25511;SDS011;13414;44.534;18.700;2023-06-10T11:10:06;0.52;;;0.52;;
25511;SDS011;13414;44.534;18.700;2023-06-10T11:15:24;1.83;;;0.95;;
25511;SDS011;13414;44.534;18.700;2023-06-10T11:18:07;0.47;;;0.47;;
25511;SDS011;13414;44.534;18.700;2023-06-10T11:20:43;0.10;;;0.10;;
25511;SDS011;13414;44.534;18.700;2023-06-10T11:23:24;0.10;;;0.10;;
25511;SDS011;13414;44.534;18.700;2023-06-10T11:26:18;16.00;;;12.18;;
25511;SDS011;13414;44.534;18.700;2023-06-10T11:29:03;17.92;;;12.98;;
25511;SDS011;13414;44.534;18.700;2023-06-10T11:31:38;16.65;;;14.55;;
25511;SDS011;13414;44.534;18.700;2023-06-10T11:34:09;21.27;;;16.33;;
25511;SDS011;13414;44.534;18.700;2023-06-10T11:36:37;22.42;;;16.08;;
25511;SDS011;13414;44.534;18.700;2023-06-10T11:39:11;16.08;;;14.23;;
25511;SDS011;13414;44.534;18.700;2023-06-10T11:41:38;18.55;;;15.18;;
25511;SDS011;13414;44.534;18.700;2023-06-10T11:44:09;16.60;;;14.90;;
25511;SDS011;13414;44.534;18.700;2023-06-10T11:46:38;20.42;;;16.00;;
25511;SDS011;13414;44.534;18.700;2023-06-10T11:49:09;17.52;;;15.23;;
25511;SDS011;13414;44.534;18.700;2023-06-10T11:51:38;14.05;;;11.63;;
25511;SDS011;13414;44.534;18.700;2023-06-10T11:54:14;13.73;;;12.25;;
25511;SDS011;13414;44.534;18.700;2023-06-10T11:56:43;16.45;;;12.45;;
25511;SDS011;13414;44.534;18.700;2023-06-10T11:59:11;15.20;;;11.80;;
25511;SDS011;13414;44.534;18.700;2023-06-10T12:01:42;12.48;;;11.02;;
25511;SDS011;13414;44.534;18.700;2023-06-10T12:04:12;13.80;;;11.35;;
25511;SDS011;13414;44.534;18.700;2023-06-10T12:06:41;15.20;;;12.18;;
25511;SDS011;13414;44.534;18.700;2023-06-10T12:09:13;12.65;;;10.98;;
25511;SDS011;13414;44.534;18.700;2023-06-10T12:11:43;14.00;;;10.15;;
25511;SDS011;13414;44.534;18.700;2023-06-10T12:14:11;12.63;;;10.80;;
25511;SDS011;13414;44.534;18.700;2023-06-10T12:16:38;13.25;;;10.55;;
25511;SDS011;13414;44.534;18.700;2023-06-10T12:19:06;13.02;;;11.63;;
25511;SDS011;13414;44.534;18.700;2023-06-10T12:21:36;15.75;;;11.38;;
25511;SDS011;13414;44.534;18.700;2023-06-10T12:24:05;13.95;;;9.95;;
25511;SDS011;13414;44.534;18.700;2023-06-10T12:26:37;11.65;;;9.13;;
25511;SDS011;13414;44.534;18.700;2023-06-10T12:29:20;11.75;;;9.32;;
25511;SDS011;13414;44.534;18.700;2023-06-10T12:31:59;12.05;;;8.10;;
25511;SDS011;13414;44.534;18.700;2023-06-10T12:34:31;8.60;;;6.80;;
25511;SDS011;13414;44.534;18.700;2023-06-10T12:37:01;10.93;;;7.25;;
25511;SDS011;13414;44.534;18.700;2023-06-10T12:39:30;9.57;;;6.93;;
25511;SDS011;13414;44.534;18.700;2023-06-10T12:41:58;7.50;;;6.55;;
25511;SDS011;13414;44.534;18.700;2023-06-10T12:44:30;10.48;;;7.35;;
25511;SDS011;13414;44.534;18.700;2023-06-10T12:47:01;9.35;;;6.75;;
25511;SDS011;13414;44.534;18.700;2023-06-10T12:49:35;6.88;;;6.05;;
25511;SDS011;13414;44.534;18.700;2023-06-10T12:52:05;11.05;;;7.88;;
25511;SDS011;13414;44.534;18.700;2023-06-10T12:54:33;9.57;;;7.70;;
25511;SDS011;13414;44.534;18.700;2023-06-10T12:57:03;6.40;;;5.57;;
25511;SDS011;13414;44.534;18.700;2023-06-10T12:59:32;8.60;;;6.28;;
25511;SDS011;13414;44.534;18.700;2023-06-10T13:02:00;6.70;;;5.93;;
25511;SDS011;13414;44.534;18.700;2023-06-10T13:04:28;12.38;;;6.63;;
25511;SDS011;13414;44.534;18.700;2023-06-10T13:06:57;10.85;;;6.30;;
25511;SDS011;13414;44.534;18.700;2023-06-10T13:09:26;6.50;;;5.78;;
25511;SDS011;13414;44.534;18.700;2023-06-10T13:11:54;9.10;;;5.65;;
25511;SDS011;13414;44.534;18.700;2023-06-10T13:14:21;6.18;;;5.50;;
25511;SDS011;13414;44.534;18.700;2023-06-10T13:16:49;7.50;;;5.88;;
25511;SDS011;13414;44.534;18.700;2023-06-10T13:19:16;7.97;;;7.03;;
25511;SDS011;13414;44.534;18.700;2023-06-10T13:21:46;9.48;;;6.80;;
25511;SDS011;13414;44.534;18.700;2023-06-10T13:24:14;10.07;;;8.02;;
25511;SDS011;13414;44.534;18.700;2023-06-10T13:26:42;11.80;;;7.45;;
25511;SDS011;13414;44.534;18.700;2023-06-10T13:29:10;11.93;;;8.38;;
25511;SDS011;13414;44.534;18.700;2023-06-10T13:31:39;10.68;;;8.30;;
25511;SDS011;13414;44.534;18.700;2023-06-10T13:34:07;14.10;;;10.93;;
25511;SDS011;13414;44.534;18.700;2023-06-10T13:36:36;10.23;;;7.25;;
25511;SDS011;13414;44.534;18.700;2023-06-10T13:39:03;8.57;;;7.35;;
25511;SDS011;13414;44.534;18.700;2023-06-10T13:41:31;8.30;;;7.47;;
25511;SDS011;13414;44.534;18.700;2023-06-10T13:44:00;9.52;;;6.15;;
25511;SDS011;13414;44.534;18.700;2023-06-10T13:46:27;7.90;;;5.75;;
25511;SDS011;13414;44.534;18.700;2023-06-10T13:48:55;8.73;;;5.70;;
25511;SDS011;13414;44.534;18.700;2023-06-10T13:51:22;6.55;;;4.68;;
25511;SDS011;13414;44.534;18.700;2023-06-10T13:53:50;8.27;;;5.28;;
25511;SDS011;13414;44.534;18.700;2023-06-10T13:56:18;9.35;;;6.03;;
25511;SDS011;13414;44.534;18.700;2023-06-10T13:58:45;7.38;;;5.25;;
25511;SDS011;13414;44.534;18.700;2023-06-10T14:01:14;7.35;;;4.93;;
25511;SDS011;13414;44.534;18.700;2023-06-10T14:03:42;7.43;;;5.22;;
25511;SDS011;13414;44.534;18.700;2023-06-10T14:06:09;9.18;;;5.90;;
25511;SDS011;13414;44.534;18.700;2023-06-10T14:08:38;6.80;;;5.20;;
25511;SDS011;13414;44.534;18.700;2023-06-10T14:11:06;9.98;;;5.10;;
25511;SDS011;13414;44.534;18.700;2023-06-10T14:13:33;6.07;;;4.93;;
25511;SDS011;13414;44.534;18.700;2023-06-10T14:16:03;7.13;;;5.55;;
25511;SDS011;13414;44.534;18.700;2023-06-10T14:18:32;5.05;;;4.55;;
25511;SDS011;13414;44.534;18.700;2023-06-10T14:21:00;6.03;;;4.57;;
25511;SDS011;13414;44.534;18.700;2023-06-10T14:23:27;6.43;;;5.05;;
25511;SDS011;13414;44.534;18.700;2023-06-10T14:25:55;6.30;;;4.90;;
25511;SDS011;13414;44.534;18.700;2023-06-10T14:28:23;5.30;;;4.68;;
25511;SDS011;13414;44.534;18.700;2023-06-10T14:30:51;7.50;;;5.70;;
25511;SDS011;13414;44.534;18.700;2023-06-10T14:33:18;6.13;;;5.53;;
25511;SDS011;13414;44.534;18.700;2023-06-10T14:35:47;6.82;;;5.15;;